createdAt,value
2017-12-27T00:00:45.396Z,99.37
2017-12-27T00:03:17.502Z,99.30
2017-12-27T00:05:49.661Z,99.25
2017-12-27T00:08:21.789Z,99.17
2017-12-27T00:10:54.275Z,98.83
2017-12-27T00:13:26.644Z,98.82
2017-12-27T00:15:59.096Z,98.97
2017-12-27T00:18:31.155Z,99.05
2017-12-27T00:21:03.159Z,98.76
2017-12-27T00:23:35.942Z,98.82
2017-12-27T00:26:08.235Z,98.94
2017-12-27T00:28:41.232Z,99.02
2017-12-27T00:31:11.749Z,98.97
2017-12-27T00:33:38.303Z,98.95
2017-12-27T00:36:04.574Z,98.76
2017-12-27T00:38:31.180Z,99.03
2017-12-27T00:40:57.569Z,99.12
2017-12-27T00:43:23.864Z,98.87
2017-12-27T00:45:50.154Z,98.87
2017-12-27T00:48:16.634Z,98.85
2017-12-27T00:50:43.110Z,98.97
2017-12-27T00:53:09.516Z,99.03
2017-12-27T00:55:36.006Z,99.05
2017-12-27T00:58:02.538Z,99.24
2017-12-27T01:00:29.256Z,99.34
2017-12-27T01:02:55.506Z,99.13
2017-12-27T01:05:22.116Z,99.05
2017-12-27T01:07:48.390Z,99.05
2017-12-27T01:10:14.763Z,99.30
2017-12-27T01:12:41.446Z,99.29
2017-12-27T01:15:07.992Z,99.31
2017-12-27T01:17:34.570Z,99.34
2017-12-27T01:20:00.842Z,99.47
2017-12-27T01:22:27.080Z,99.31
2017-12-27T01:24:54.084Z,99.36
2017-12-27T01:27:20.111Z,99.26
2017-12-27T01:29:46.318Z,99.23
2017-12-27T01:32:12.637Z,99.38
2017-12-27T01:34:39.251Z,99.32
2017-12-27T01:37:05.345Z,99.30
2017-12-27T01:39:31.355Z,99.21
2017-12-27T01:41:57.645Z,99.35
2017-12-27T01:44:24.086Z,99.55
2017-12-27T01:47:02.416Z,99.50
2017-12-27T01:49:28.815Z,99.40
2017-12-27T01:51:55.054Z,99.50
2017-12-27T01:54:28.425Z,99.40
2017-12-27T01:56:55.162Z,99.60
2017-12-27T01:59:21.787Z,99.73
2017-12-27T02:01:48.278Z,99.87
2017-12-27T02:04:14.872Z,99.97
2017-12-27T02:06:41.201Z,99.98
2017-12-27T02:09:07.312Z,99.99
2017-12-27T02:11:33.339Z,99.95
2017-12-27T02:13:59.926Z,99.90
2017-12-27T02:16:26.294Z,100.00
2017-12-27T02:18:52.781Z,100.00
2017-12-27T02:21:19.298Z,100.00
2017-12-27T02:23:45.690Z,100.00
2017-12-27T02:26:12.220Z,100.00
2017-12-27T02:28:39.076Z,99.97
2017-12-27T02:31:05.525Z,100.00
2017-12-27T02:33:31.795Z,100.00
2017-12-27T02:35:58.084Z,100.00
2017-12-27T02:38:36.784Z,100.00
2017-12-27T02:41:03.124Z,99.97
2017-12-27T02:43:29.795Z,99.95
2017-12-27T02:46:03.165Z,99.88
2017-12-27T02:48:29.680Z,99.76
2017-12-27T02:50:55.966Z,99.67
2017-12-27T02:53:22.478Z,99.63
2017-12-27T02:55:48.914Z,99.71
2017-12-27T02:58:15.482Z,99.76
2017-12-27T03:00:41.954Z,99.73
2017-12-27T03:03:08.230Z,99.81
2017-12-27T03:05:34.688Z,99.76
2017-12-27T03:08:01.005Z,99.65
2017-12-27T03:10:27.290Z,99.60
2017-12-27T03:12:53.306Z,99.67
2017-12-27T03:15:19.639Z,99.62
2017-12-27T03:17:46.214Z,99.59
2017-12-27T03:20:13.035Z,99.55
2017-12-27T03:22:39.307Z,99.41
2017-12-27T03:25:05.713Z,99.61
2017-12-27T03:27:32.542Z,99.64
2017-12-27T03:29:59.041Z,99.74
2017-12-27T03:32:25.529Z,99.72
2017-12-27T03:34:52.179Z,99.74
2017-12-27T03:37:19.660Z,99.78
2017-12-27T03:39:46.387Z,99.86
2017-12-27T03:42:12.894Z,99.95
2017-12-27T03:44:39.325Z,99.88
2017-12-27T03:47:05.668Z,99.88
2017-12-27T03:49:32.173Z,99.81
2017-12-27T03:51:58.833Z,99.89
2017-12-27T03:54:24.926Z,99.92
2017-12-27T03:56:50.939Z,100.00
2017-12-27T03:59:16.917Z,100.00
2017-12-27T04:01:43.028Z,100.00
2017-12-27T04:04:09.152Z,100.00
2017-12-27T04:06:35.469Z,100.00
2017-12-27T04:09:01.893Z,100.00
2017-12-27T04:11:29.366Z,99.76
2017-12-27T04:13:56.142Z,99.57
2017-12-27T04:16:22.677Z,99.46
2017-12-27T04:18:49.074Z,99.55
2017-12-27T04:21:15.770Z,99.69
2017-12-27T04:23:42.350Z,99.73
2017-12-27T04:26:08.684Z,99.73
2017-12-27T04:28:35.197Z,99.83
2017-12-27T04:31:01.891Z,99.84
2017-12-27T04:33:28.602Z,99.83
2017-12-27T04:35:55.337Z,100.00
2017-12-27T04:38:21.938Z,100.00
2017-12-27T04:40:48.534Z,100.00
2017-12-27T04:43:14.765Z,100.00
2017-12-27T04:45:40.722Z,99.60
2017-12-27T04:48:07.042Z,98.95
2017-12-27T04:50:33.399Z,98.81
2017-12-27T04:52:59.803Z,98.76
2017-12-27T04:55:26.315Z,98.67
2017-12-27T04:57:52.624Z,98.45
2017-12-27T05:00:19.510Z,98.35
2017-12-27T05:02:46.014Z,98.30
2017-12-27T05:05:12.218Z,98.23
2017-12-27T05:07:38.687Z,98.26
2017-12-27T05:10:05.277Z,98.44
2017-12-27T05:12:31.980Z,98.65
2017-12-27T05:14:58.522Z,98.77
2017-12-27T05:17:24.713Z,98.82
2017-12-27T05:19:50.738Z,98.71
2017-12-27T05:22:16.759Z,98.63
2017-12-27T05:24:42.809Z,98.92
2017-12-27T05:27:10.395Z,98.94
2017-12-27T05:29:36.868Z,98.95
2017-12-27T05:32:03.275Z,98.90
2017-12-27T05:34:29.579Z,99.00
2017-12-27T05:36:55.863Z,99.05
2017-12-27T05:39:22.030Z,99.08
2017-12-27T05:41:49.170Z,99.01
2017-12-27T05:44:15.805Z,98.95
2017-12-27T05:46:42.491Z,98.96
2017-12-27T05:49:09.190Z,98.98
2017-12-27T05:51:35.666Z,99.00
2017-12-27T05:54:01.870Z,99.02
2017-12-27T05:56:28.118Z,98.93
2017-12-27T05:58:54.446Z,99.07
2017-12-27T06:01:20.540Z,99.17
2017-12-27T06:03:46.689Z,99.10
2017-12-27T06:06:12.862Z,99.06
2017-12-27T06:08:38.946Z,99.04
2017-12-27T06:11:05.034Z,98.99
2017-12-27T06:13:31.179Z,98.92
2017-12-27T06:15:57.268Z,99.03
2017-12-27T06:18:23.675Z,99.09
2017-12-27T06:20:50.345Z,99.26
2017-12-27T06:23:16.960Z,99.34
2017-12-27T06:25:43.555Z,99.49
2017-12-27T06:28:09.623Z,99.62
2017-12-27T06:30:36.306Z,99.52
2017-12-27T06:33:02.904Z,99.53
2017-12-27T06:35:29.538Z,99.44
2017-12-27T06:37:56.205Z,99.54
2017-12-27T06:40:22.591Z,99.65
2017-12-27T06:42:48.750Z,99.82
2017-12-27T06:45:15.937Z,99.79
2017-12-27T06:47:42.008Z,99.73
2017-12-27T06:50:08.406Z,99.67
2017-12-27T06:52:34.835Z,99.54
2017-12-27T06:55:01.327Z,99.48
2017-12-27T06:57:27.902Z,99.39
2017-12-27T07:00:01.321Z,99.30
2017-12-27T07:02:28.098Z,99.17
2017-12-27T07:04:59.068Z,99.27
2017-12-27T07:07:25.715Z,99.09
2017-12-27T07:09:52.023Z,99.14
2017-12-27T07:12:18.907Z,99.14
2017-12-27T07:14:49.492Z,99.16
2017-12-27T07:17:15.520Z,99.19
2017-12-27T07:19:41.922Z,99.21
2017-12-27T07:22:08.475Z,99.21
2017-12-27T07:24:35.752Z,99.12
2017-12-27T07:27:02.494Z,99.00
2017-12-27T07:29:28.972Z,99.05
2017-12-27T07:31:55.472Z,98.95
2017-12-27T07:34:21.520Z,98.87
2017-12-27T07:36:47.973Z,98.88
2017-12-27T07:39:14.426Z,98.74
2017-12-27T07:41:40.822Z,98.71
2017-12-27T07:44:07.173Z,98.62
2017-12-27T07:46:33.629Z,98.51
2017-12-27T07:49:00.062Z,98.37
2017-12-27T07:51:26.879Z,98.25
2017-12-27T07:53:53.552Z,98.13
2017-12-27T07:56:20.222Z,97.94
2017-12-27T07:58:47.033Z,97.77
2017-12-27T08:01:13.764Z,97.64
2017-12-27T08:03:40.119Z,97.49
2017-12-27T08:06:06.540Z,97.30
2017-12-27T08:08:32.607Z,97.01
2017-12-27T08:10:58.707Z,96.94
2017-12-27T08:13:24.787Z,96.94
2017-12-27T08:15:50.857Z,96.74
2017-12-27T08:18:17.381Z,96.74
2017-12-27T08:20:43.581Z,96.86
2017-12-27T08:23:10.007Z,96.64
2017-12-27T08:25:36.531Z,96.39
2017-12-27T08:28:07.174Z,96.05
2017-12-27T08:30:36.465Z,96.12
2017-12-27T08:33:11.630Z,95.58
2017-12-27T08:35:38.559Z,95.13
2017-12-27T08:38:05.496Z,95.34
2017-12-27T08:40:33.096Z,95.36
2017-12-27T08:42:59.150Z,95.12
2017-12-27T08:45:25.577Z,94.55
2017-12-27T08:47:51.962Z,94.24
2017-12-27T08:50:18.590Z,93.68
2017-12-27T08:52:45.129Z,93.24
2017-12-27T08:55:11.980Z,93.15
2017-12-27T08:57:38.492Z,93.04
2017-12-27T09:00:05.003Z,93.69
2017-12-27T09:02:31.128Z,93.19
2017-12-27T09:04:57.204Z,93.94
2017-12-27T09:07:23.655Z,93.96
2017-12-27T09:09:50.324Z,94.17
2017-12-27T09:12:16.806Z,94.25
2017-12-27T09:14:43.647Z,94.77
2017-12-27T09:17:09.910Z,94.70
2017-12-27T09:19:36.576Z,94.60
2017-12-27T09:22:03.400Z,94.62
2017-12-27T09:24:29.453Z,94.89
2017-12-27T09:26:55.522Z,94.27
2017-12-27T09:29:21.629Z,94.48
2017-12-27T09:31:47.834Z,94.87
2017-12-27T09:34:14.391Z,94.43
2017-12-27T09:36:41.319Z,94.36
2017-12-27T09:39:08.195Z,93.80
2017-12-27T09:41:34.747Z,93.50
2017-12-27T09:44:01.461Z,93.42
2017-12-27T09:46:29.093Z,93.30
2017-12-27T09:48:55.848Z,93.57
2017-12-27T09:51:22.769Z,93.62
2017-12-27T09:53:49.081Z,93.41
2017-12-27T09:56:15.646Z,94.00
2017-12-27T09:58:42.349Z,94.22
2017-12-27T10:01:08.707Z,94.10
2017-12-27T10:03:39.471Z,94.22
2017-12-27T10:06:06.278Z,94.24
2017-12-27T10:08:35.055Z,94.22
2017-12-27T10:11:02.754Z,94.08
2017-12-27T10:13:31.459Z,93.81
2017-12-27T10:15:58.017Z,93.43
2017-12-27T10:18:24.679Z,93.57
2017-12-27T10:20:50.841Z,93.34
2017-12-27T10:23:18.147Z,92.93
2017-12-27T10:25:44.620Z,93.03
2017-12-27T10:28:10.892Z,92.74
2017-12-27T10:30:37.462Z,92.80
2017-12-27T10:33:03.716Z,92.92
2017-12-27T10:35:30.392Z,93.12
2017-12-27T10:38:02.022Z,92.98
2017-12-27T10:40:29.310Z,92.74
2017-12-27T10:42:55.769Z,92.52
2017-12-27T10:45:22.320Z,92.59
2017-12-27T10:47:48.732Z,92.68
2017-12-27T10:50:15.249Z,92.30
2017-12-27T10:52:41.557Z,92.59
2017-12-27T10:55:08.098Z,92.47
2017-12-27T10:57:34.426Z,92.50
2017-12-27T11:00:01.066Z,92.90
2017-12-27T11:02:33.026Z,92.62
2017-12-27T11:07:38.624Z,92.34
2017-12-27T11:10:04.975Z,92.28
2017-12-27T11:12:31.590Z,92.12
2017-12-27T11:14:57.989Z,91.66
2017-12-27T11:17:25.096Z,91.08
2017-12-27T11:19:51.187Z,90.55
2017-12-27T11:22:17.405Z,90.53
2017-12-27T11:24:43.463Z,91.05
2017-12-27T11:27:09.457Z,91.08
2017-12-27T11:29:36.008Z,90.92
2017-12-27T11:32:02.048Z,90.88
2017-12-27T11:34:28.713Z,90.90
2017-12-27T11:36:55.346Z,91.10
2017-12-27T11:39:21.886Z,91.54
2017-12-27T11:41:48.489Z,91.15
2017-12-27T11:44:17.618Z,91.67
2017-12-27T11:46:44.488Z,91.81
2017-12-27T11:49:11.027Z,91.83
2017-12-27T11:51:37.600Z,91.68
2017-12-27T11:54:04.179Z,91.76
2017-12-27T11:56:30.951Z,91.49
2017-12-27T11:58:56.951Z,91.39
2017-12-27T12:01:24.580Z,91.27
2017-12-27T12:03:58.485Z,91.23
2017-12-27T12:06:25.296Z,91.19
2017-12-27T12:08:51.904Z,91.31
2017-12-27T12:11:18.357Z,91.17
2017-12-27T12:13:45.850Z,91.05
2017-12-27T12:16:12.871Z,90.48
2017-12-27T12:23:26.718Z,90.58
2017-12-27T12:25:59.748Z,90.36
2017-12-27T12:28:26.745Z,90.04
2017-12-27T12:30:53.160Z,90.21
2017-12-27T12:33:19.696Z,90.30
2017-12-27T12:35:46.618Z,90.27
2017-12-27T12:38:13.418Z,90.60
2017-12-27T12:40:40.487Z,90.92
2017-12-27T12:43:08.867Z,91.47
2017-12-27T12:45:37.691Z,91.52
2017-12-27T12:48:06.754Z,91.96
2017-12-27T12:50:34.201Z,91.76
2017-12-27T12:53:01.505Z,91.63
2017-12-27T12:58:00.763Z,91.86
2017-12-27T13:00:28.330Z,91.50
2017-12-27T13:02:55.122Z,93.40
2017-12-27T13:05:24.479Z,93.09
2017-12-27T13:07:51.254Z,92.16
2017-12-27T13:10:19.137Z,92.30
2017-12-27T13:12:46.399Z,91.94
2017-12-27T13:15:15.593Z,91.31
2017-12-27T13:17:46.866Z,90.88
2017-12-27T13:20:14.067Z,90.31
2017-12-27T13:22:41.248Z,89.39
2017-12-27T13:25:12.281Z,89.86
2017-12-27T13:27:39.908Z,90.33
2017-12-27T13:30:07.880Z,90.44
2017-12-27T13:32:35.676Z,90.56
2017-12-27T13:35:04.514Z,90.71
2017-12-27T13:37:33.735Z,90.89
2017-12-27T13:40:08.339Z,91.05
2017-12-27T13:42:38.890Z,91.20
2017-12-27T13:45:07.358Z,91.30
2017-12-27T13:47:39.208Z,91.56
2017-12-27T13:50:07.706Z,91.56
2017-12-27T13:52:38.747Z,91.73
2017-12-27T13:55:05.517Z,91.48
2017-12-27T13:57:32.148Z,91.82
2017-12-27T13:59:58.839Z,91.87
2017-12-27T14:02:25.320Z,92.45
2017-12-27T14:04:51.957Z,92.38
2017-12-27T14:07:18.569Z,92.62
2017-12-27T14:09:45.115Z,92.46
2017-12-27T14:12:11.766Z,93.18
2017-12-27T14:14:38.475Z,93.78
2017-12-27T14:17:05.075Z,94.03
2017-12-27T14:19:33.629Z,94.29
2017-12-27T14:22:02.785Z,94.69
2017-12-27T14:24:29.221Z,94.71
2017-12-27T14:26:55.591Z,94.94
2017-12-27T14:29:21.991Z,95.18
2017-12-27T14:31:50.059Z,95.37
2017-12-27T14:34:16.707Z,95.07
2017-12-27T14:36:43.291Z,95.39
2017-12-27T14:39:09.719Z,95.45
2017-12-27T14:41:36.147Z,95.51
2017-12-27T14:44:02.755Z,95.45
2017-12-27T14:46:29.605Z,95.58
2017-12-27T14:51:29.524Z,95.87
2017-12-27T14:53:59.926Z,95.88
2017-12-27T14:59:00.950Z,96.09
2017-12-27T15:01:27.595Z,96.01
2017-12-27T15:03:55.065Z,96.25
2017-12-27T15:06:21.384Z,96.44
2017-12-27T15:08:47.765Z,96.51
2017-12-27T15:11:16.239Z,96.75
2017-12-27T15:13:45.052Z,96.81
2017-12-27T15:16:11.496Z,96.86
2017-12-27T15:18:37.922Z,97.01
2017-12-27T15:21:04.228Z,97.15
2017-12-27T15:23:30.914Z,97.18
2017-12-27T15:25:57.614Z,97.41
2017-12-27T15:28:23.930Z,97.62
2017-12-27T15:30:50.590Z,97.76
2017-12-27T15:33:16.946Z,97.87
2017-12-27T15:35:44.750Z,97.70
2017-12-27T15:40:45.112Z,97.46
2017-12-27T15:43:11.439Z,97.45
2017-12-27T15:45:38.471Z,97.48
2017-12-27T15:48:09.509Z,97.47
2017-12-27T15:50:37.887Z,97.45
2017-12-27T15:53:04.830Z,97.45
2017-12-27T15:55:31.201Z,97.50
2017-12-27T15:57:57.943Z,97.44
2017-12-27T16:00:24.184Z,97.48
2017-12-27T16:02:52.451Z,97.61
2017-12-27T16:05:18.701Z,97.70
2017-12-27T16:07:45.137Z,97.81
2017-12-27T16:10:11.507Z,97.75
2017-12-27T16:12:37.637Z,97.69
2017-12-27T16:15:04.380Z,97.73
2017-12-27T16:17:31.203Z,97.65
2017-12-27T16:20:00.297Z,97.67
2017-12-27T16:22:32.156Z,97.75
2017-12-27T16:30:24.413Z,97.91
2017-12-27T16:32:51.603Z,97.96
2017-12-27T16:35:20.145Z,97.97
2017-12-27T16:37:53.405Z,98.03
2017-12-27T16:40:27.809Z,98.03
2017-12-27T16:42:58.304Z,98.02
2017-12-27T16:45:25.438Z,98.06
2017-12-27T16:47:51.770Z,98.05
2017-12-27T16:50:21.026Z,97.99
2017-12-27T16:52:47.633Z,98.02
2017-12-27T16:55:15.219Z,98.03
2017-12-27T16:57:43.292Z,98.05
2017-12-27T17:00:10.657Z,98.13
2017-12-27T17:02:39.260Z,98.25
2017-12-27T17:05:13.778Z,98.42
2017-12-27T17:07:41.340Z,98.53
2017-12-27T17:10:08.074Z,98.59
2017-12-27T17:12:34.905Z,98.63
2017-12-27T17:15:02.054Z,98.62
2017-12-27T17:17:28.696Z,98.35
2017-12-27T17:35:25.547Z,96.42
2017-12-27T17:38:00.389Z,96.57
2017-12-27T17:43:21.699Z,96.56
2017-12-27T17:45:52.436Z,96.27
2017-12-27T17:48:20.123Z,96.18
2017-12-27T17:50:52.563Z,95.56
2017-12-27T17:53:20.821Z,95.43
2017-12-27T17:55:59.588Z,95.55
2017-12-27T17:58:28.970Z,95.84
2017-12-27T18:01:02.085Z,95.73
2017-12-27T18:03:31.764Z,95.63
2017-12-27T18:06:25.547Z,95.73
2017-12-27T18:09:10.178Z,95.68
2017-12-27T18:14:12.504Z,95.40
2017-12-27T18:16:41.777Z,95.29
2017-12-27T18:19:08.894Z,95.05
2017-12-27T18:21:35.922Z,94.45
2017-12-27T18:24:05.494Z,94.35
2017-12-27T18:26:34.606Z,94.02
2017-12-27T18:29:01.483Z,94.08
2017-12-27T18:31:28.404Z,94.69
2017-12-27T18:36:29.894Z,95.06
2017-12-27T18:38:56.726Z,95.02
2017-12-27T18:41:23.781Z,95.02
2017-12-27T18:43:51.725Z,94.93
2017-12-27T18:46:17.813Z,95.07
2017-12-27T18:48:44.473Z,95.10
2017-12-27T18:51:10.743Z,95.07
2017-12-27T18:53:36.880Z,94.86
2017-12-27T18:56:02.945Z,94.84
2017-12-27T18:58:29.909Z,94.60
2017-12-27T19:00:59.406Z,93.80
2017-12-27T19:03:30.549Z,94.04
2017-12-27T19:08:52.551Z,94.13
2017-12-27T19:11:24.382Z,94.40
2017-12-27T19:13:51.185Z,94.28
2017-12-27T19:16:17.701Z,94.20
2017-12-27T19:18:44.892Z,94.53
2017-12-27T19:21:11.588Z,94.05
2017-12-27T19:23:38.138Z,94.05
2017-12-27T19:39:35.388Z,94.18
2017-12-27T19:45:01.971Z,93.90
2017-12-27T19:47:29.251Z,94.58
2017-12-27T19:49:59.676Z,94.93
2017-12-27T19:52:26.266Z,95.30
2017-12-27T19:54:58.989Z,94.71
2017-12-27T19:57:25.755Z,94.78
2017-12-27T19:59:52.599Z,94.39
2017-12-27T20:02:19.161Z,94.05
2017-12-27T20:04:45.970Z,94.13
2017-12-27T20:07:12.728Z,94.28
2017-12-27T20:09:43.309Z,94.67
2017-12-27T20:12:09.907Z,93.66
2017-12-27T20:14:36.839Z,93.82
2017-12-27T20:17:03.563Z,94.05
2017-12-27T20:19:30.329Z,93.33
2017-12-27T20:22:00.531Z,93.64
2017-12-27T20:24:27.247Z,93.37
2017-12-27T20:26:53.948Z,93.44
2017-12-27T20:29:20.602Z,93.62
2017-12-27T20:31:47.550Z,93.80
2017-12-27T20:34:14.484Z,93.69
2017-12-27T20:36:43.483Z,93.40
2017-12-27T20:39:10.464Z,94.03
2017-12-27T20:41:37.319Z,94.47
2017-12-27T20:44:04.112Z,93.88
2017-12-27T20:46:33.471Z,93.19
2017-12-27T20:49:01.214Z,93.45
2017-12-27T20:51:28.273Z,93.68
2017-12-27T20:53:55.189Z,93.24
2017-12-27T20:56:21.731Z,92.05
2017-12-27T20:58:48.443Z,92.32
2017-12-27T21:01:15.199Z,92.67
2017-12-27T21:03:48.897Z,92.55
2017-12-27T21:06:15.601Z,92.67
2017-12-27T21:08:42.216Z,92.20
2017-12-27T21:11:08.899Z,92.43
2017-12-27T21:13:35.415Z,92.52
2017-12-27T21:16:01.877Z,92.06
2017-12-27T21:18:28.582Z,92.64
2017-12-27T21:20:56.470Z,92.76
2017-12-27T21:23:29.528Z,92.59
2017-12-27T21:25:56.578Z,93.02
2017-12-27T21:28:23.447Z,93.32
2017-12-27T21:30:51.283Z,93.01
2017-12-27T21:33:21.582Z,93.04
2017-12-27T21:35:50.306Z,93.51
2017-12-27T21:38:17.092Z,93.23
2017-12-27T21:40:44.173Z,93.69
2017-12-27T21:43:10.917Z,93.30
2017-12-27T21:45:38.365Z,93.93
2017-12-27T21:48:10.756Z,94.15
2017-12-27T21:50:37.745Z,94.29
2017-12-27T21:53:04.333Z,94.65
2017-12-27T21:55:30.684Z,94.91
2017-12-27T21:58:03.266Z,95.01
2017-12-27T22:00:35.840Z,95.14
2017-12-27T22:03:02.566Z,95.05
2017-12-27T22:05:29.217Z,94.34
2017-12-27T22:07:55.654Z,94.76
2017-12-27T22:10:22.111Z,95.06
2017-12-27T22:12:48.408Z,95.49
2017-12-27T22:15:15.013Z,95.59
2017-12-27T22:17:41.886Z,95.20
2017-12-27T22:20:14.457Z,95.59
2017-12-27T22:22:41.001Z,95.92
2017-12-27T22:25:07.802Z,95.79
2017-12-27T22:27:34.432Z,95.66
2017-12-27T22:30:00.987Z,95.77
2017-12-27T22:32:27.480Z,95.77
2017-12-27T22:34:53.845Z,95.41
2017-12-27T22:37:21.275Z,95.16
2017-12-27T22:39:48.126Z,94.19
2017-12-27T22:47:35.142Z,95.60
2017-12-27T22:53:04.430Z,95.90
2017-12-27T22:55:30.554Z,96.28
2017-12-27T22:57:58.573Z,96.52
2017-12-27T23:00:24.594Z,95.62
2017-12-27T23:02:51.056Z,95.53
2017-12-27T23:05:17.530Z,95.54
2017-12-27T23:07:44.086Z,95.83
2017-12-27T23:10:10.691Z,95.73
2017-12-27T23:12:36.899Z,95.59
2017-12-27T23:15:04.373Z,94.97
2017-12-27T23:17:30.818Z,95.23
2017-12-27T23:19:58.194Z,95.11
2017-12-27T23:22:24.946Z,95.31
2017-12-27T23:24:51.451Z,95.59
2017-12-27T23:27:18.171Z,95.71
2017-12-27T23:29:44.838Z,95.85
2017-12-27T23:32:11.452Z,95.84
2017-12-27T23:34:37.901Z,95.57
2017-12-27T23:37:04.558Z,95.86
2017-12-27T23:39:31.195Z,95.76
2017-12-27T23:41:58.009Z,95.64
2017-12-27T23:44:24.668Z,95.91
2017-12-27T23:46:51.386Z,95.20
2017-12-27T23:49:18.078Z,95.22
2017-12-27T23:51:44.555Z,94.79
2017-12-27T23:54:11.943Z,94.87
2017-12-27T23:56:38.553Z,94.66
2017-12-27T23:59:05.109Z,94.48
